Terminal Aerodrome Forecast
Issued by NWS

Home | Current Version | Previous Version | Graphics & Text | Print | Product List | Glossary On
Versions: 1 2 3 4 5 6 7 8 9 10 11 12 13 14 15 16 17 18 19 20 21 22 23
000
FTUS43 KGRB 231400 AAA
TAFCWA
TAF AMD
KCWA 231414Z 2314/2412 22012G18KT P6SM BKN009 OVC080 WS016/25040KT
      TEMPO 2318/2321 -PLSN BKN060
     FM232200 27009KT P6SM BKN020 OVC050
     FM240100 30008KT P6SM OVC012=

USA.gov is the U.S. government's official web portal to all federal, state and local government web resources and services.